Time;durP1;ratioP1;P1;durP2;ratioP2;P2;SDS_P1;SDS_P2;PMS_P1;PMS_P2;Temp;Humidity;BMP_temperature;BMP_pressure;BME280_temperature;BME280_humidity;BME280_pressure;Samples;Min_cycle;Max_cycle;Signal;HPM_P1;HPM_P2
2021/04/11 00:01:22;;;;;;;63.83;33.27;;;8.30;97.30;;;;;;4997486;28;20269;-83
2021/04/11 00:03:47;;;;;;;60.43;33.80;;;8.40;97.30;;;;;;4997937;28;20177;-83
2021/04/11 00:06:13;;;;;;;61.03;33.00;;;8.30;97.30;;;;;;5015719;28;20609;-83
2021/04/11 00:08:38;;;;;;;66.00;32.07;;;8.30;97.30;;;;;;4996030;28;20201;-83
2021/04/11 00:11:04;;;;;;;64.10;31.23;;;8.30;97.30;;;;;;4987712;28;20607;-83
2021/04/11 00:13:37;;;;;;;65.00;31.23;;;8.30;97.30;;;;;;4983709;28;20264;-83
2021/04/11 00:16:04;;;;;;;61.57;32.70;;;8.30;97.30;;;;;;4998704;28;20475;-82
2021/04/11 00:18:30;;;;;;;61.13;33.30;;;8.30;97.30;;;;;;4998461;28;20452;-83
2021/04/11 00:20:56;;;;;;;58.43;32.20;;;8.30;97.30;;;;;;4998776;28;20424;-83
2021/04/11 00:23:24;;;;;;;62.47;32.30;;;8.30;97.30;;;;;;5016119;28;20197;-83
2021/04/11 00:25:50;;;;;;;60.47;33.17;;;8.30;97.30;;;;;;4998506;28;20511;-83
2021/04/11 00:28:17;;;;;;;62.37;32.10;;;8.30;97.30;;;;;;5015524;28;20977;-83
2021/04/11 00:30:44;;;;;;;59.93;32.57;;;8.30;97.30;;;;;;4998271;28;20420;-82
2021/04/11 00:33:26;;;;;;;60.43;31.60;;;8.30;97.30;;;;;;4998396;28;20508;-83
2021/04/11 00:36:01;;;;;;;59.43;31.90;;;8.30;97.30;;;;;;4998677;28;20443;-83
2021/04/11 00:38:28;;;;;;;57.63;31.10;;;8.30;97.30;;;;;;5015728;28;20428;-83
2021/04/11 00:40:57;;;;;;;61.40;31.10;;;8.30;97.30;;;;;;4998161;28;20424;-82
2021/04/11 00:43:24;;;;;;;54.03;30.20;;;8.30;97.30;;;;;;4997972;28;20467;-83
2021/04/11 00:46:19;;;;;;;59.97;31.00;;;8.30;97.30;;;;;;4997995;28;20440;-83
2021/04/11 00:48:46;;;;;;;60.13;31.90;;;8.30;97.30;;;;;;4997314;28;20472;-85
2021/04/11 00:51:14;;;;;;;60.90;33.17;;;8.30;97.30;;;;;;4997430;28;20432;-83
2021/04/11 00:53:41;;;;;;;63.83;30.93;;;8.30;97.30;;;;;;4997544;28;20404;-83
2021/04/11 00:56:08;;;;;;;60.97;31.40;;;8.30;97.30;;;;;;4996698;28;20416;-83
2021/04/11 00:58:35;;;;;;;55.50;30.10;;;8.30;97.30;;;;;;4996101;28;20866;-83
2021/04/11 01:01:02;;;;;;;61.83;29.93;;;8.30;97.30;;;;;;4997099;28;20418;-85
2021/04/11 01:03:32;;;;;;;52.90;30.27;;;8.40;97.30;;;;;;4996745;28;20466;-85
2021/04/11 01:05:58;;;;;;;61.70;31.00;;;8.40;97.30;;;;;;4997067;28;20466;-85
2021/04/11 01:08:33;;;;;;;53.73;30.30;;;8.40;97.30;;;;;;5011792;23;20507;-85
2021/04/11 01:11:21;;;;;;;53.43;30.57;;;8.40;97.30;;;;;;4996707;28;20853;-85
2021/04/11 01:13:53;;;;;;;57.53;30.70;;;8.40;97.30;;;;;;4996856;28;20408;-85
2021/04/11 01:16:25;;;;;;;54.43;31.00;;;8.40;97.30;;;;;;4996479;28;20408;-85
2021/04/11 01:18:57;;;;;;;54.80;32.27;;;8.40;97.30;;;;;;4996250;28;20497;-85
2021/04/11 01:21:40;;;;;;;56.13;31.47;;;8.40;97.30;;;;;;5013929;28;20891;-85
2021/04/11 01:24:13;;;;;;;56.80;29.83;;;8.40;97.30;;;;;;4996612;28;20478;-85
2021/04/11 01:26:40;;;;;;;61.73;29.97;;;8.50;97.30;;;;;;4996548;28;20470;-85
2021/04/11 01:29:08;;;;;;;48.80;27.40;;;8.50;97.30;;;;;;4996562;28;20440;-85
2021/04/11 01:31:34;;;;;;;57.13;28.47;;;8.50;97.30;;;;;;4996508;28;20474;-85
2021/04/11 01:34:01;;;;;;;52.10;29.67;;;8.50;97.30;;;;;;4996298;28;20800;-85
2021/04/11 01:36:29;;;;;;;49.73;28.20;;;8.50;97.30;;;;;;4996504;28;20416;-85
2021/04/11 01:38:57;;;;;;;56.43;28.90;;;8.40;97.30;;;;;;4996487;28;20436;-85
2021/04/11 01:41:36;;;;;;;50.97;27.20;;;8.40;97.30;;;;;;4996069;28;20416;-85
2021/04/11 01:44:06;;;;;;;58.80;29.17;;;8.40;97.30;;;;;;4996197;28;20524;-85
2021/04/11 01:46:32;;;;;;;62.63;31.30;;;8.40;97.30;;;;;;4995989;28;20519;-85
2021/04/11 01:48:58;;;;;;;60.03;29.23;;;8.40;97.30;;;;;;4994980;28;20974;-85
2021/04/11 01:51:58;;;;;;;50.50;27.40;;;8.40;97.30;;;;;;4995492;28;20421;-85
2021/04/11 01:54:34;;;;;;;55.47;28.67;;;8.40;97.30;;;;;;4981685;28;20417;-85
2021/04/11 01:58:00;;;;;;;54.20;28.70;;;8.40;97.30;;;;;;4995667;28;20977;-85
2021/04/11 02:00:58;;;;;;;55.07;29.97;;;8.40;97.30;;;;;;4955383;28;20433;-85
2021/04/11 02:03:31;;;;;;;51.53;26.77;;;8.40;97.30;;;;;;4967854;28;20457;-85
2021/04/11 02:06:17;;;;;;;49.90;28.23;;;8.40;97.30;;;;;;4956262;28;20446;-85
2021/04/11 02:08:52;;;;;;;55.60;29.30;;;8.40;97.30;;;;;;4969083;28;20838;-85
2021/04/11 02:11:27;;;;;;;59.37;30.33;;;8.40;97.30;;;;;;4978244;28;20420;-85
2021/04/11 02:14:02;;;;;;;53.07;26.40;;;8.40;97.30;;;;;;4979279;28;20432;-84
2021/04/11 02:16:30;;;;;;;54.97;29.67;;;8.40;97.30;;;;;;4979320;28;20408;-85
2021/04/11 02:19:11;;;;;;;50.10;28.00;;;8.40;97.30;;;;;;4996223;28;20443;-86
2021/04/11 02:22:21;;;;;;;51.80;28.07;;;8.50;97.30;;;;;;4979238;28;20422;-85
2021/04/11 02:24:52;;;;;;;52.63;29.23;;;8.40;97.30;;;;;;4979374;28;20476;-86
2021/04/11 02:27:22;;;;;;;49.53;27.40;;;8.40;97.30;;;;;;4996557;28;20435;-85
2021/04/11 02:29:51;;;;;;;55.33;29.33;;;8.40;97.30;;;;;;4996596;28;20950;-85
2021/04/11 02:32:29;;;;;;;49.83;26.53;;;8.40;97.30;;;;;;4979018;28;20448;-85
2021/04/11 02:34:54;;;;;;;52.07;28.37;;;8.40;97.30;;;;;;4978922;28;20789;-85
2021/04/11 02:37:27;;;;;;;52.00;27.93;;;8.40;97.30;;;;;;4979351;28;20440;-85
2021/04/11 02:40:19;;;;;;;52.63;27.70;;;8.40;97.30;;;;;;4980223;28;20561;-83
2021/04/11 02:43:27;;;;;;;56.13;28.90;;;8.40;97.30;;;;;;4962182;28;20460;-85
2021/04/11 02:45:57;;;;;;;53.97;29.10;;;8.40;97.30;;;;;;4959984;28;20852;-85
2021/04/11 02:48:25;;;;;;;61.57;29.30;;;8.40;97.30;;;;;;4977886;28;20438;-86
2021/04/11 02:50:57;;;;;;;52.13;27.90;;;8.40;97.30;;;;;;4977191;28;20480;-86
2021/04/11 02:53:25;;;;;;;51.83;27.90;;;8.40;97.30;;;;;;4978689;28;20410;-85
2021/04/11 02:55:53;;;;;;;53.37;28.63;;;8.40;97.30;;;;;;4977477;28;20904;-85
2021/04/11 02:58:22;;;;;;;50.20;26.97;;;8.40;97.30;;;;;;4977363;28;20481;-85
2021/04/11 03:00:56;;;;;;;51.10;28.17;;;8.40;97.30;;;;;;4977181;28;20468;-85
2021/04/11 03:03:57;;;;;;;47.60;28.00;;;8.40;97.30;;;;;;4976565;28;20458;-85
2021/04/11 03:10:14;;;;;;;;;;;;;;;;;;;;;
2021/04/11 03:12:59;;;;;;;50.60;27.60;;;8.40;97.30;;;;;;4883115;29;20945;-86
2021/04/11 03:15:25;;;;;;;47.53;28.27;;;8.40;97.30;;;;;;4901732;29;20529;-85
2021/04/11 03:17:57;;;;;;;47.47;27.40;;;8.40;97.30;;;;;;4977744;28;20472;-86
2021/04/11 03:21:01;;;;;;;48.30;26.70;;;8.40;97.30;;;;;;4966171;28;21146;-86
2021/04/11 03:23:30;;;;;;;46.33;26.00;;;8.40;97.30;;;;;;4980408;28;20464;-85
2021/04/11 03:27:06;;;;;;;;;;;;;;;;;;;;;
2021/04/11 03:30:01;;;;;;;44.83;26.87;;;8.50;97.30;;;;;;4898640;29;20950;-84
2021/04/11 03:33:04;;;;;;;44.13;23.80;;;8.50;97.30;;;;;;4867554;29;21002;-85
2021/04/11 03:35:57;;;;;;;43.17;23.80;;;8.50;97.30;;;;;;4996077;28;20440;-86
2021/04/11 03:38:30;;;;;;;44.07;23.87;;;8.50;97.30;;;;;;4986678;28;20465;-84
2021/04/11 03:40:57;;;;;;;46.33;24.10;;;8.60;97.30;;;;;;4975749;28;20418;-85
2021/04/11 03:43:33;;;;;;;44.90;23.63;;;8.60;97.30;;;;;;4975505;28;20466;-85
2021/04/11 03:46:13;;;;;;;47.47;22.80;;;8.70;97.30;;;;;;4975711;28;20421;-85
2021/04/11 03:51:33;;;;;;;43.17;23.50;;;8.70;97.30;;;;;;5032580;28;20466;-84
2021/04/11 03:54:24;;;;;;;44.27;22.83;;;8.80;97.30;;;;;;5016702;28;20419;-84
2021/04/11 03:57:09;;;;;;;43.17;23.87;;;8.80;97.30;;;;;;5014863;28;20435;-84
2021/04/11 03:59:45;;;;;;;49.27;23.07;;;8.80;97.30;;;;;;5014572;28;20443;-85
2021/04/11 04:02:18;;;;;;;43.23;23.50;;;8.80;97.30;;;;;;5015505;28;20494;-84
2021/04/11 04:04:46;;;;;;;42.33;23.47;;;8.80;97.30;;;;;;5016500;28;20865;-83
2021/04/11 04:07:20;;;;;;;39.37;22.47;;;8.70;97.30;;;;;;5016133;28;20455;-83
2021/04/11 04:09:57;;;;;;;41.80;24.13;;;8.70;97.30;;;;;;5016480;28;20481;-83
2021/04/11 04:12:36;;;;;;;43.47;22.10;;;8.70;97.30;;;;;;5016552;28;20419;-84
2021/04/11 04:15:31;;;;;;;38.43;22.73;;;8.70;97.30;;;;;;5016301;28;20427;-83
2021/04/11 04:18:12;;;;;;;38.70;22.30;;;8.70;97.30;;;;;;5016113;28;20443;-83
2021/04/11 04:20:43;;;;;;;40.50;21.83;;;8.70;97.30;;;;;;5016229;28;20507;-83
2021/04/11 04:23:41;;;;;;;42.10;22.20;;;8.70;97.30;;;;;;5016021;28;20573;-83
2021/04/11 04:26:29;;;;;;;45.10;23.90;;;8.70;97.30;;;;;;5016028;28;20425;-83
2021/04/11 04:29:01;;;;;;;43.27;23.07;;;8.70;97.30;;;;;;5015940;28;20514;-83
2021/04/11 04:31:45;;;;;;;45.53;23.03;;;8.70;97.30;;;;;;5015935;28;20418;-83
2021/04/11 04:34:46;;;;;;;49.43;23.03;;;8.70;97.30;;;;;;5015127;28;20443;-83
2021/04/11 04:37:57;;;;;;;38.53;22.70;;;8.70;97.30;;;;;;5012415;28;20520;-83
2021/04/11 04:40:29;;;;;;;38.90;22.37;;;8.70;97.30;;;;;;4971295;28;20423;-83
2021/04/11 04:43:01;;;;;;;38.53;21.67;;;8.70;97.30;;;;;;5016512;28;20459;-83
2021/04/11 04:45:38;;;;;;;46.90;22.03;;;8.70;97.30;;;;;;5017038;28;20938;-82
2021/04/11 04:48:16;;;;;;;38.50;22.20;;;8.70;97.30;;;;;;5034304;28;20812;-82
2021/04/11 04:51:00;;;;;;;37.27;21.93;;;8.70;97.30;;;;;;5017759;28;20506;-84
2021/04/11 04:53:43;;;;;;;40.33;21.57;;;8.70;97.30;;;;;;5035377;28;20403;-84
2021/04/11 04:56:16;;;;;;;40.27;22.47;;;8.70;97.30;;;;;;5017731;28;21008;-83
2021/04/11 04:58:45;;;;;;;39.47;22.03;;;8.70;97.30;;;;;;5017568;28;20961;-83
2021/04/11 05:01:21;;;;;;;40.20;22.07;;;8.70;97.30;;;;;;5015846;28;20423;-83
2021/04/11 05:03:49;;;;;;;40.83;22.17;;;8.80;97.30;;;;;;5016751;28;20540;-84
2021/04/11 05:06:17;;;;;;;40.37;21.87;;;8.80;97.30;;;;;;5017837;28;20502;-83
2021/04/11 05:08:52;;;;;;;40.57;21.13;;;8.80;97.30;;;;;;5017192;28;20435;-82
2021/04/11 05:11:27;;;;;;;39.57;22.33;;;8.80;97.30;;;;;;5017838;28;20415;-83
2021/04/11 05:14:02;;;;;;;41.40;23.10;;;8.80;97.30;;;;;;5017265;28;20430;-84
2021/04/11 05:16:34;;;;;;;42.43;23.20;;;8.80;97.30;;;;;;5017295;28;20408;-83
2021/04/11 05:19:22;;;;;;;41.03;23.03;;;8.80;97.30;;;;;;5016343;28;20427;-84
2021/04/11 05:21:59;;;;;;;42.97;23.60;;;8.80;97.30;;;;;;5034054;28;20447;-83
2021/04/11 05:24:30;;;;;;;44.00;23.73;;;8.80;97.30;;;;;;5016673;28;20399;-83
2021/04/11 05:27:11;;;;;;;39.47;23.60;;;8.80;97.30;;;;;;5016395;28;20446;-83
2021/04/11 05:29:53;;;;;;;46.30;24.10;;;8.80;97.30;;;;;;5034036;28;20478;-83
2021/04/11 05:32:19;;;;;;;44.40;23.67;;;8.80;97.30;;;;;;5034173;28;20804;-83
2021/04/11 05:34:45;;;;;;;40.90;23.23;;;8.80;97.30;;;;;;5016008;28;20430;-82
2021/04/11 05:37:36;;;;;;;49.10;23.70;;;8.80;97.30;;;;;;5016570;28;20415;-84
2021/04/11 05:40:07;;;;;;;42.30;24.20;;;8.80;97.30;;;;;;5012946;28;20185;-84
2021/04/11 05:42:54;;;;;;;43.93;24.97;;;8.80;97.30;;;;;;5015806;28;20446;-84
2021/04/11 05:45:34;;;;;;;41.07;22.30;;;8.70;97.30;;;;;;5021154;28;20418;-84
2021/04/11 05:48:07;;;;;;;39.63;23.70;;;8.70;97.30;;;;;;5019930;28;20446;-85
2021/04/11 05:50:56;;;;;;;42.87;23.03;;;8.70;97.30;;;;;;5022830;28;20458;-84
2021/04/11 05:53:28;;;;;;;39.43;23.60;;;8.70;97.30;;;;;;5022359;28;20798;-84
2021/04/11 05:55:57;;;;;;;43.30;22.70;;;8.70;97.30;;;;;;5023550;28;20424;-84
2021/04/11 05:58:26;;;;;;;42.30;22.37;;;8.80;97.30;;;;;;5039254;28;20446;-84
2021/04/11 06:01:02;;;;;;;46.90;23.93;;;8.80;97.30;;;;;;5021717;28;20438;-85
2021/04/11 06:03:29;;;;;;;40.13;22.80;;;8.80;97.30;;;;;;5026299;28;20456;-85
2021/04/11 06:06:26;;;;;;;43.80;22.70;;;8.80;97.30;;;;;;5023274;28;20996;-85
2021/04/11 06:09:02;;;;;;;50.60;23.43;;;8.90;97.30;;;;;;5008792;28;20449;-84
2021/04/11 06:11:37;;;;;;;41.80;22.37;;;9.00;97.30;;;;;;5022666;28;20405;-85
2021/04/11 06:14:15;;;;;;;41.87;23.67;;;9.00;97.30;;;;;;5021383;28;20867;-83
2021/04/11 06:16:42;;;;;;;39.53;23.03;;;9.10;97.30;;;;;;5022160;28;20403;-84
2021/04/11 06:19:09;;;;;;;40.27;22.37;;;9.10;97.30;;;;;;5021223;28;20427;-84
2021/04/11 06:21:55;;;;;;;42.30;23.60;;;9.10;97.30;;;;;;5021638;28;20419;-84
2021/04/11 06:25:10;;;;;;;38.27;22.70;;;9.10;97.30;;;;;;5021610;28;20419;-84
2021/04/11 06:28:16;;;;;;;39.57;22.07;;;9.20;97.30;;;;;;4954745;28;20467;-84
2021/04/11 06:30:50;;;;;;;43.97;23.30;;;9.20;97.30;;;;;;5022655;28;20430;-84
2021/04/11 06:33:18;;;;;;;42.37;23.60;;;9.40;97.30;;;;;;5018329;28;20407;-84
2021/04/11 06:35:49;;;;;;;36.30;22.47;;;9.50;97.30;;;;;;5022141;28;20429;-84
2021/04/11 06:38:23;;;;;;;39.70;22.43;;;9.50;97.30;;;;;;5021433;28;20861;-85
2021/04/11 06:41:06;;;;;;;39.90;23.10;;;9.60;97.30;;;;;;5018929;28;20509;-85
2021/04/11 06:44:04;;;;;;;40.80;22.33;;;9.80;97.30;;;;;;5018380;28;21014;-83
2021/04/11 06:46:45;;;;;;;38.40;21.37;;;10.00;97.30;;;;;;5016762;28;20530;-84
2021/04/11 06:49:30;;;;;;;36.83;21.93;;;10.20;97.30;;;;;;5026995;28;20458;-83
2021/04/11 06:52:22;;;;;;;35.33;20.73;;;10.50;97.30;;;;;;5019713;28;20781;-84
2021/04/11 06:54:56;;;;;;;31.27;19.13;;;10.70;97.30;;;;;;5018635;28;21128;-84
2021/04/11 06:57:47;;;;;;;33.30;18.40;;;10.80;97.30;;;;;;5020361;28;20415;-85
2021/04/11 07:00:22;;;;;;;31.20;18.77;;;10.90;97.30;;;;;;5019650;28;20412;-85
2021/04/11 07:03:24;;;;;;;38.30;20.03;;;11.00;97.30;;;;;;5017626;28;20520;-85
2021/04/11 07:06:28;;;;;;;34.13;17.40;;;11.10;97.30;;;;;;5017038;28;20450;-88
2021/04/11 07:09:02;;;;;;;30.73;18.30;;;11.20;97.30;;;;;;5010089;23;21117;-71
2021/04/11 07:11:56;;;;;;;33.47;17.40;;;11.40;97.30;;;;;;4995315;28;20447;-69
2021/04/11 07:14:46;;;;;;;27.60;17.10;;;11.60;97.30;;;;;;5013193;28;20408;-72
2021/04/11 07:17:19;;;;;;;26.10;15.73;;;11.90;97.30;;;;;;5013787;28;20396;-72
2021/04/11 07:19:45;;;;;;;25.83;16.60;;;12.00;97.30;;;;;;4996093;28;20404;-72
2021/04/11 07:22:14;;;;;;;24.87;14.50;;;12.10;97.30;;;;;;4995841;28;21001;-71
2021/04/11 07:24:50;;;;;;;22.53;12.90;;;12.20;97.30;;;;;;5012104;28;20177;-71
2021/04/11 07:27:28;;;;;;;22.50;12.07;;;12.30;97.30;;;;;;5010822;28;20424;-72
2021/04/11 07:29:56;;;;;;;18.77;12.13;;;12.60;97.30;;;;;;4994493;28;20416;-72
2021/04/11 07:32:32;;;;;;;23.17;13.20;;;13.00;97.30;;;;;;4994082;28;20440;-71
2021/04/11 07:35:17;;;;;;;22.73;11.80;;;13.10;97.30;;;;;;4994632;28;20432;-72
2021/04/11 07:38:05;;;;;;;23.80;12.80;;;13.30;97.30;;;;;;4994765;28;21097;-72
2021/04/11 07:40:58;;;;;;;20.57;12.57;;;13.50;97.30;;;;;;5012937;28;20444;-72
2021/04/11 07:43:37;;;;;;;18.20;10.70;;;13.70;97.30;;;;;;4995411;28;20455;-72
2021/04/11 07:46:32;;;;;;;18.00;11.63;;;13.80;97.30;;;;;;4995190;28;20420;-71
2021/04/11 07:49:04;;;;;;;21.00;11.63;;;14.00;97.30;;;;;;5012929;28;20447;-72
2021/04/11 07:51:54;;;;;;;22.70;11.70;;;14.20;97.30;;;;;;5011750;28;20467;-72
2021/04/11 07:54:40;;;;;;;16.30;10.40;;;14.30;97.20;;;;;;5011592;28;20416;-72
2021/04/11 07:57:18;;;;;;;16.80;10.57;;;14.40;95.80;;;;;;5011877;28;20443;-72
2021/04/11 07:59:58;;;;;;;18.17;10.77;;;14.50;95.40;;;;;;5011502;28;20411;-73
2021/04/11 08:02:57;;;;;;;13.93;8.60;;;14.70;94.80;;;;;;5012030;28;20993;-72
2021/04/11 08:06:00;;;;;;;13.00;8.93;;;14.80;94.40;;;;;;5012517;28;20420;-70
2021/04/11 08:08:57;;;;;;;13.53;8.93;;;15.00;94.20;;;;;;5004552;28;20484;-72
2021/04/11 08:11:55;;;;;;;15.33;9.03;;;15.20;94.00;;;;;;5014372;28;20431;-71
2021/04/11 08:14:38;;;;;;;14.90;8.27;;;15.20;91.40;;;;;;5013035;28;20416;-73
2021/04/11 08:17:25;;;;;;;14.13;8.60;;;15.20;91.00;;;;;;5011206;28;20854;-72
2021/04/11 08:20:14;;;;;;;16.20;11.20;;;15.20;91.50;;;;;;5007382;28;20456;-73
2021/04/11 08:22:58;;;;;;;14.77;9.13;;;15.30;92.00;;;;;;5011125;28;20539;-72
2021/04/11 08:25:48;;;;;;;11.43;8.47;;;15.30;91.60;;;;;;4994888;28;20985;-72
2021/04/11 08:28:30;;;;;;;13.90;9.23;;;15.50;92.20;;;;;;5010938;28;20414;-72
2021/04/11 08:31:40;;;;;;;17.13;9.67;;;15.60;91.20;;;;;;4993131;28;20452;-72
2021/04/11 08:34:06;;;;;;;14.70;9.40;;;15.60;91.40;;;;;;4946424;28;20510;-71
2021/04/11 08:36:50;;;;;;;16.50;9.67;;;15.60;91.40;;;;;;4991832;28;20531;-72
2021/04/11 08:39:34;;;;;;;14.20;9.13;;;15.80;91.40;;;;;;5004894;28;20177;-72
2021/04/11 08:42:21;;;;;;;17.53;8.97;;;15.80;91.30;;;;;;4993030;28;20468;-72
2021/04/11 08:45:08;;;;;;;17.70;10.10;;;16.00;90.70;;;;;;5004384;28;20420;-72
2021/04/11 08:47:47;;;;;;;13.30;8.87;;;16.10;89.80;;;;;;5019627;28;20425;-72
2021/04/11 08:50:27;;;;;;;13.10;8.70;;;16.20;88.90;;;;;;5000719;28;20783;-72
2021/04/11 08:53:23;;;;;;;13.37;8.47;;;16.20;88.70;;;;;;5004004;28;20840;-69
2021/04/11 08:55:55;;;;;;;16.23;9.27;;;16.30;89.00;;;;;;5009590;28;20461;-69
2021/04/11 08:58:30;;;;;;;17.87;9.90;;;16.60;89.80;;;;;;5001634;28;20477;-71
2021/04/11 09:01:09;;;;;;;13.00;8.90;;;16.80;88.00;;;;;;4992599;28;20432;-70
2021/04/11 09:04:01;;;;;;;15.97;8.60;;;17.00;87.60;;;;;;5025333;28;20463;-70
2021/04/11 09:06:54;;;;;;;14.63;7.80;;;17.30;88.10;;;;;;5010964;28;20998;-69
2021/04/11 09:09:35;;;;;;;14.40;8.47;;;17.40;85.80;;;;;;4997997;28;20469;-69
2021/04/11 09:12:37;;;;;;;12.60;8.03;;;17.40;85.60;;;;;;5007953;28;20449;-70
2021/04/11 09:15:20;;;;;;;15.70;8.03;;;17.50;86.00;;;;;;4994625;28;20437;-70
2021/04/11 09:18:23;;;;;;;12.30;7.60;;;17.70;85.00;;;;;;5003342;28;20436;-69
2021/04/11 09:21:13;;;;;;;9.67;7.40;;;17.70;85.40;;;;;;5006728;28;20507;-69
2021/04/11 09:24:04;;;;;;;11.33;7.23;;;18.00;84.30;;;;;;5007211;28;20453;-72
2021/04/11 09:26:42;;;;;;;13.93;7.20;;;18.30;84.40;;;;;;5007299;28;20443;-71
2021/04/11 09:29:30;;;;;;;12.90;7.30;;;18.60;85.00;;;;;;5009203;28;20428;-72
2021/04/11 09:32:29;;;;;;;11.17;7.63;;;18.80;82.80;;;;;;5006691;28;20491;-72
2021/04/11 09:35:14;;;;;;;14.10;8.07;;;18.70;82.00;;;;;;4990651;28;20412;-73
2021/04/11 09:38:00;;;;;;;12.67;7.60;;;18.50;82.00;;;;;;4983113;28;20450;-72
2021/04/11 09:40:52;;;;;;;12.80;7.60;;;18.40;83.30;;;;;;4985028;28;20445;-72
2021/04/11 09:43:39;;;;;;;11.20;7.80;;;18.30;82.60;;;;;;4980227;28;20979;-71
2021/04/11 09:46:29;;;;;;;13.40;7.10;;;18.10;83.30;;;;;;4988078;28;20535;-71
2021/04/11 09:49:13;;;;;;;18.17;8.13;;;18.20;84.30;;;;;;4994899;28;20460;-71
2021/04/11 09:51:51;;;;;;;12.20;6.53;;;18.10;82.50;;;;;;4993003;28;21760;-70
2021/04/11 09:54:29;;;;;;;12.60;6.53;;;18.00;83.30;;;;;;5010895;28;20795;-71
2021/04/11 09:57:12;;;;;;;10.80;7.03;;;18.00;82.00;;;;;;4993164;28;20881;-71
2021/04/11 10:00:15;;;;;;;10.90;6.57;;;18.00;84.10;;;;;;5007852;28;20431;-70
2021/04/11 10:03:04;;;;;;;10.27;7.07;;;18.20;83.60;;;;;;4998037;28;20462;-70
2021/04/11 10:05:47;;;;;;;11.10;6.77;;;18.10;83.50;;;;;;4990668;28;20420;-71
2021/04/11 10:08:28;;;;;;;14.17;7.20;;;18.00;83.80;;;;;;4985909;28;20476;-71
2021/04/11 10:11:29;;;;;;;10.27;6.40;;;18.00;83.30;;;;;;4973757;28;21030;-72
2021/04/11 10:14:26;;;;;;;9.10;6.53;;;18.40;82.60;;;;;;4973888;28;20413;-72
2021/04/11 10:17:24;;;;;;;12.47;6.93;;;18.70;82.50;;;;;;4971446;28;20429;-71
2021/04/11 10:20:05;;;;;;;17.70;7.50;;;18.90;83.10;;;;;;4986315;28;20437;-71
2021/04/11 10:22:55;;;;;;;12.90;7.10;;;19.30;81.90;;;;;;4970435;28;20473;-72
2021/04/11 10:25:36;;;;;;;10.97;6.83;;;19.60;80.80;;;;;;4957957;28;20430;-72
2021/04/11 10:28:14;;;;;;;16.90;7.03;;;19.60;80.40;;;;;;4982790;28;20978;-72
2021/04/11 10:30:42;;;;;;;13.67;7.33;;;19.50;80.70;;;;;;4970818;28;20461;-72
2021/04/11 10:33:22;;;;;;;10.00;6.13;;;19.60;80.00;;;;;;4970892;28;20832;-72
2021/04/11 10:36:05;;;;;;;12.80;6.90;;;19.80;81.20;;;;;;4979936;28;20440;-71
2021/04/11 10:38:35;;;;;;;11.67;7.10;;;19.90;79.80;;;;;;4967935;28;20430;-72
2021/04/11 10:41:19;;;;;;;13.20;6.90;;;20.00;79.80;;;;;;4985237;28;21011;-72
2021/04/11 10:43:48;;;;;;;9.20;5.70;;;20.20;79.90;;;;;;4957930;28;20972;-71
2021/04/11 10:46:32;;;;;;;7.40;5.60;;;20.40;79.70;;;;;;4975486;28;20426;-72
2021/04/11 10:56:48;;;;;;;13.00;5.90;;;20.10;76.20;;;;;;4982360;28;20871;-71
2021/04/11 10:59:37;;;;;;;12.43;6.50;;;20.30;77.10;;;;;;4962594;28;20459;-71
2021/04/11 11:02:48;;;;;;;10.30;6.03;;;20.50;76.70;;;;;;4978061;28;20547;-72
2021/04/11 11:06:07;;;;;;;9.13;5.33;;;20.60;76.90;;;;;;4975349;28;20487;-72
2021/04/11 11:09:38;;;;;;;11.70;5.87;;;20.70;77.80;;;;;;4972405;28;20477;-72
2021/04/11 11:12:36;;;;;;;8.20;5.60;;;20.90;78.60;;;;;;4974772;28;20444;-72
2021/04/11 11:15:28;;;;;;;8.93;5.70;;;20.80;75.50;;;;;;4975543;28;20428;-70
2021/04/11 11:18:37;;;;;;;9.40;5.90;;;20.80;75.50;;;;;;4972456;28;20841;-72
2021/04/11 11:21:26;;;;;;;17.80;6.17;;;20.80;76.10;;;;;;4967079;28;20507;-71
2021/04/11 11:24:37;;;;;;;10.07;6.10;;;21.00;77.30;;;;;;4986944;28;20556;-73
2021/04/11 11:27:40;;;;;;;9.17;5.93;;;21.20;75.80;;;;;;5011452;28;20955;-71
2021/04/11 11:30:15;;;;;;;10.10;6.03;;;21.20;75.50;;;;;;5011691;28;20422;-71
2021/04/11 11:32:50;;;;;;;8.23;5.30;;;21.30;75.70;;;;;;4995294;28;20419;-72
2021/04/11 11:35:27;;;;;;;9.13;5.53;;;21.50;75.60;;;;;;4995535;28;20420;-71
2021/04/11 11:42:06;;;;;;;8.70;5.40;;;21.80;74.60;;;;;;5008179;28;20444;-71
2021/04/11 11:44:40;;;;;;;13.47;6.00;;;22.10;76.80;;;;;;5008136;28;20743;-72
2021/04/11 11:47:18;;;;;;;8.53;5.90;;;22.40;75.20;;;;;;4985168;28;20420;-71
2021/04/11 11:49:56;;;;;;;14.83;5.53;;;22.70;75.80;;;;;;4973810;28;20580;-73
2021/04/11 11:52:44;;;;;;;6.90;5.30;;;22.60;73.30;;;;;;4973524;28;20463;-71
2021/04/11 11:55:23;;;;;;;8.10;5.43;;;22.40;74.20;;;;;;4972798;28;20410;-71
2021/04/11 11:58:08;;;;;;;10.77;5.20;;;22.50;74.10;;;;;;4954300;28;20925;-71
2021/04/11 12:00:56;;;;;;;9.20;4.83;;;22.90;74.20;;;;;;4955529;28;20492;-71
2021/04/11 12:03:30;;;;;;;7.10;5.37;;;22.90;72.20;;;;;;4956091;28;20458;-71
2021/04/11 12:06:05;;;;;;;7.93;4.63;;;23.10;74.30;;;;;;4972964;28;20394;-72
2021/04/11 12:09:08;;;;;;;8.37;4.07;;;23.30;71.90;;;;;;4978541;28;20547;-71
2021/04/11 12:11:36;;;;;;;10.63;5.43;;;23.40;73.40;;;;;;4975042;28;20464;-71
2021/04/11 12:14:13;;;;;;;12.20;4.80;;;23.30;72.70;;;;;;4974863;28;20417;-71
2021/04/11 12:16:46;;;;;;;6.20;4.07;;;23.20;71.30;;;;;;4974731;28;20421;-71
2021/04/11 12:19:22;;;;;;;7.40;4.43;;;23.20;71.40;;;;;;4992446;28;20396;-71
2021/04/11 12:22:11;;;;;;;6.90;4.07;;;23.10;71.00;;;;;;4974801;28;20432;-71
2021/04/11 12:24:53;;;;;;;5.57;3.57;;;22.80;71.50;;;;;;4975002;28;20409;-72
2021/04/11 12:27:29;;;;;;;6.70;4.47;;;23.00;72.70;;;;;;4974707;28;20455;-71
2021/04/11 12:29:55;;;;;;;7.37;4.60;;;23.50;72.20;;;;;;4974925;28;20900;-72
2021/04/11 12:32:26;;;;;;;5.40;4.00;;;23.50;71.10;;;;;;4992103;28;20453;-71
2021/04/11 12:35:18;;;;;;;5.93;4.13;;;22.90;71.60;;;;;;4974349;28;20454;-71
2021/04/11 12:38:20;;;;;;;7.27;4.60;;;22.30;72.80;;;;;;4960827;28;20433;-71
2021/04/11 12:41:01;;;;;;;6.13;4.43;;;21.90;74.80;;;;;;4974406;28;20452;-71
2021/04/11 12:44:00;;;;;;;8.13;4.37;;;22.70;73.10;;;;;;4974200;28;20492;-71
2021/04/11 12:46:29;;;;;;;9.83;4.70;;;23.30;72.00;;;;;;4976735;28;20409;-71
2021/04/11 12:49:06;;;;;;;5.50;3.80;;;23.40;72.20;;;;;;4993593;28;20408;-71
2021/04/11 12:51:51;;;;;;;5.73;3.27;;;23.10;71.50;;;;;;5011443;28;20515;-71
2021/04/11 12:54:30;;;;;;;8.00;4.90;;;23.50;72.50;;;;;;5010678;28;20403;-71
2021/04/11 12:57:01;;;;;;;6.77;4.10;;;23.10;71.10;;;;;;5011259;28;20763;-71
2021/04/11 12:59:51;;;;;;;12.77;5.80;;;22.40;72.00;;;;;;5011269;28;20404;-70
2021/04/11 13:02:27;;;;;;;8.80;4.27;;;22.00;72.70;;;;;;5010972;28;20838;-71
2021/04/11 13:05:04;;;;;;;6.80;4.50;;;22.40;75.30;;;;;;4993485;28;20825;-71
2021/04/11 13:07:38;;;;;;;7.10;4.30;;;23.30;72.30;;;;;;4993472;28;20419;-71
2021/04/11 13:10:28;;;;;;;5.90;3.80;;;23.80;70.90;;;;;;4975125;28;20469;-71
2021/04/11 13:12:59;;;;;;;7.60;3.90;;;24.10;70.50;;;;;;4974097;28;20421;-71
2021/04/11 13:15:43;;;;;;;6.20;4.00;;;24.30;70.50;;;;;;4974035;28;20421;-71
2021/04/11 13:18:30;;;;;;;5.50;3.50;;;24.70;70.00;;;;;;4991340;28;20913;-72
2021/04/11 13:21:27;;;;;;;3.40;2.80;;;24.80;68.80;;;;;;4991353;28;20443;-72
2021/04/11 13:24:10;;;;;;;5.10;3.20;;;24.70;69.20;;;;;;4973668;28;20467;-71
2021/04/11 13:26:46;;;;;;;4.50;2.73;;;24.40;68.80;;;;;;4973910;28;20419;-72
2021/04/11 13:29:12;;;;;;;4.50;3.27;;;24.60;68.90;;;;;;4991177;28;20496;-71
2021/04/11 13:31:54;;;;;;;5.77;2.93;;;24.40;68.20;;;;;;4990952;28;20520;-71
2021/04/11 13:34:54;;;;;;;4.40;2.97;;;24.50;69.00;;;;;;4991783;28;20228;-71
2021/04/11 13:37:21;;;;;;;4.70;3.00;;;24.30;69.50;;;;;;4973577;28;20512;-72
2021/04/11 13:39:50;;;;;;;3.90;3.20;;;24.80;69.40;;;;;;4991012;28;20406;-71
2021/04/11 13:42:22;;;;;;;4.67;3.23;;;24.70;69.30;;;;;;4973597;28;20523;-71
2021/04/11 13:44:47;;;;;;;7.43;3.20;;;24.00;69.30;;;;;;4973533;28;20467;-71
2021/04/11 13:47:31;;;;;;;5.73;3.00;;;23.70;70.90;;;;;;4990948;28;20409;-71
2021/04/11 13:50:03;;;;;;;4.60;3.37;;;23.30;71.60;;;;;;4973584;28;20637;-71
2021/04/11 13:52:42;;;;;;;6.23;2.87;;;23.00;72.50;;;;;;4973373;28;20436;-71
2021/04/11 13:56:03;;;;;;;3.70;2.67;;;22.50;71.70;;;;;;4990837;28;20448;-70
2021/04/11 13:58:48;;;;;;;4.60;2.90;;;22.30;72.80;;;;;;4967998;28;20798;-71
2021/04/11 14:01:19;;;;;;;3.63;2.77;;;22.10;72.70;;;;;;4992894;28;20440;-70
2021/04/11 14:03:59;;;;;;;4.00;2.73;;;21.90;72.80;;;;;;5010405;28;20463;-71
2021/04/11 14:06:36;;;;;;;3.60;2.93;;;21.80;72.50;;;;;;5013562;28;20411;-70
2021/04/11 14:09:20;;;;;;;4.13;2.70;;;21.70;73.20;;;;;;5024366;28;20450;-71